Time;durP1;ratioP1;P1;durP2;ratioP2;P2;SDS_P1;SDS_P2;PMS_P1;PMS_P2;Temp;Humidity;BMP_temperature;BMP_pressure;BME280_temperature;BME280_humidity;BME280_pressure;Samples;Min_cycle;Max_cycle;Signal;HPM_P1;HPM_P2
2021/06/13 00:02:53;;;;;;;3.47;3.25;;;;;;;17.70;68.35;96790.47;5331329;55;20121;-80
2021/06/13 00:07:56;;;;;;;3.67;3.33;;;;;;;17.51;69.22;96800.47;5321827;55;20118;-79
2021/06/13 00:12:58;;;;;;;3.42;3.13;;;;;;;17.58;69.06;96792.41;5329687;55;20221;-77
2021/06/13 00:18:01;;;;;;;4.25;3.63;;;;;;;17.52;69.40;96802.03;5329937;55;20100;-80
2021/06/13 00:23:03;;;;;;;3.42;2.92;;;;;;;17.55;69.01;96799.00;5330788;55;20123;-79
2021/06/13 00:28:06;;;;;;;6.03;4.25;;;;;;;17.40;67.89;96789.19;5330829;55;20117;-76
2021/06/13 00:33:08;;;;;;;3.63;3.33;;;;;;;17.56;67.58;96800.53;5331344;55;20127;-78
2021/06/13 00:38:11;;;;;;;3.45;3.15;;;;;;;17.46;68.14;96801.19;5330333;55;20135;-78
2021/06/13 00:43:13;;;;;;;3.67;3.17;;;;;;;17.53;67.99;96806.34;5331806;55;20587;-80
2021/06/13 00:48:15;;;;;;;3.50;3.20;;;;;;;17.48;68.98;96812.66;5329783;55;20121;-79
2021/06/13 00:53:19;;;;;;;4.30;3.95;;;;;;;17.29;69.40;96811.44;5329552;55;20602;-78
2021/06/13 00:58:22;;;;;;;4.00;3.60;;;;;;;17.23;69.82;96807.84;5331171;55;20564;-79
2021/06/13 01:03:24;;;;;;;7.70;3.70;;;;;;;17.27;70.07;96803.59;5330172;55;20126;-79
2021/06/13 01:08:44;;;;;;;4.35;3.95;;;;;;;17.32;68.98;96804.88;5329237;55;20612;-78
2021/06/13 01:14:12;;;;;;;4.05;3.70;;;;;;;17.11;69.82;96807.75;5334518;55;20154;-79
2021/06/13 01:19:23;;;;;;;4.05;3.58;;;;;;;17.07;70.86;96807.19;5321393;55;20122;-79
2021/06/13 01:24:32;;;;;;;4.00;3.60;;;;;;;17.15;70.12;96805.50;5330651;55;20135;-79
2021/06/13 01:29:38;;;;;;;4.30;3.90;;;;;;;16.78;71.96;96807.41;5330199;55;20132;-80
2021/06/13 01:34:47;;;;;;;3.97;3.65;;;;;;;16.56;72.61;96800.81;5329631;55;20649;-79
2021/06/13 01:39:53;;;;;;;3.85;3.55;;;;;;;16.34;73.47;96801.31;5330977;55;20118;-78
2021/06/13 01:44:59;;;;;;;5.40;4.05;;;;;;;16.10;74.00;96807.09;5329760;55;20114;-79
2021/06/13 01:50:04;;;;;;;4.38;3.97;;;;;;;15.95;74.71;96800.81;5329891;55;20113;-79
2021/06/13 01:55:08;;;;;;;4.22;3.83;;;;;;;15.81;75.30;96798.09;5329119;55;20847;-78
2021/06/13 02:00:13;;;;;;;4.63;4.22;;;;;;;16.03;74.14;96806.75;5330098;55;20109;-78
2021/06/13 02:05:17;;;;;;;5.78;3.75;;;;;;;15.77;75.00;96792.69;5319001;55;20135;-79
2021/06/13 02:10:21;;;;;;;5.38;4.50;;;;;;;15.58;76.12;96800.53;5328335;55;20122;-79
2021/06/13 02:15:26;;;;;;;8.02;4.30;;;;;;;15.61;76.46;96809.94;5329024;55;20109;-79
2021/06/13 02:20:30;;;;;;;5.75;4.25;;;;;;;15.68;75.29;96810.31;5332343;55;20109;-79
2021/06/13 02:25:33;;;;;;;5.35;4.15;;;;;;;15.87;74.93;96808.06;5331552;55;20595;-77
2021/06/13 02:30:38;;;;;;;5.28;4.20;;;;;;;15.99;74.47;96811.75;5331425;55;20129;-79
2021/06/13 02:35:46;;;;;;;8.27;4.70;;;;;;;15.99;73.55;96806.19;5331693;55;20108;-79
2021/06/13 02:40:50;;;;;;;6.25;4.72;;;;;;;16.12;73.22;96817.75;5321359;55;20576;-79
2021/06/13 02:45:52;;;;;;;9.93;4.82;;;;;;;16.14;71.86;96809.69;5331802;55;20122;-80
2021/06/13 02:50:57;;;;;;;5.43;4.80;;;;;;;16.38;70.25;96818.59;5332205;55;20594;-80
2021/06/13 02:56:16;;;;;;;7.30;4.72;;;;;;;16.36;69.51;96818.31;5341141;55;20113;-77
2021/06/13 03:01:21;;;;;;;6.10;5.45;;;;;;;16.42;69.46;96830.31;5344070;55;20577;-79
2021/06/13 03:06:25;;;;;;;5.15;4.75;;;;;;;16.31;69.79;96841.31;5333923;55;20634;-79
2021/06/13 03:11:28;;;;;;;9.57;5.30;;;;;;;16.24;70.24;96847.31;5333016;55;20400;-80
2021/06/13 03:16:32;;;;;;;7.28;4.82;;;;;;;16.03;70.81;96842.97;5332257;55;20621;-79
2021/06/13 03:21:35;;;;;;;4.78;4.32;;;;;;;16.00;71.42;96850.28;5331171;55;20251;-78
2021/06/13 03:26:38;;;;;;;5.72;5.15;;;;;;;15.98;71.38;96854.81;5323497;55;20135;-78
2021/06/13 03:31:41;;;;;;;4.88;4.10;;;;;;;15.93;71.97;96863.88;5331525;55;20118;-78
2021/06/13 03:36:44;;;;;;;5.30;4.72;;;;;;;15.97;72.16;96858.84;5321636;55;20648;-79
2021/06/13 03:41:47;;;;;;;4.47;4.07;;;;;;;15.87;72.37;96855.44;5331351;55;20122;-79
2021/06/13 03:46:50;;;;;;;6.30;4.43;;;;;;;15.91;72.19;96861.56;5330575;55;20113;-78
2021/06/13 03:51:53;;;;;;;7.13;5.85;;;;;;;15.92;71.80;96881.84;5339625;55;20692;-77
2021/06/13 03:57:07;;;;;;;6.25;4.78;;;;;;;15.78;72.21;96873.00;5332894;55;20140;-79
2021/06/13 04:02:10;;;;;;;6.47;4.82;;;;;;;15.76;72.65;96878.31;5329600;55;20559;-78
2021/06/13 04:07:15;;;;;;;6.18;5.10;;;;;;;15.64;72.63;96876.63;5330050;55;20135;-78
2021/06/13 04:12:20;;;;;;;7.65;5.13;;;;;;;15.55;73.33;96884.31;5329341;55;20151;-78
2021/06/13 04:17:23;;;;;;;6.20;4.95;;;;;;;15.60;73.05;96884.38;5329703;55;20159;-78
2021/06/13 04:22:26;;;;;;;5.50;4.53;;;;;;;15.51;73.04;96881.69;5329507;55;20123;-77
2021/06/13 04:27:29;;;;;;;6.47;5.00;;;;;;;15.47;73.33;96892.28;5329409;55;20118;-78
2021/06/13 04:32:32;;;;;;;5.20;4.47;;;;;;;15.47;73.05;96902.66;5329352;55;20148;-78
2021/06/13 04:37:34;;;;;;;4.97;4.47;;;;;;;15.32;73.77;96891.47;5330245;55;20131;-79
2021/06/13 04:42:37;;;;;;;6.53;4.57;;;;;;;15.54;73.28;96905.81;5328993;55;20113;-79
2021/06/13 04:47:39;;;;;;;6.65;5.43;;;;;;;15.62;71.87;96900.63;5328934;55;20127;-79
2021/06/13 04:52:43;;;;;;;5.70;4.55;;;;;;;15.61;72.30;96918.59;5330400;55;20236;-78
2021/06/13 04:58:14;;;;;;;4.70;4.20;;;;;;;15.57;72.34;96921.56;5319794;55;20117;-79
2021/06/13 05:03:17;;;;;;;6.00;4.68;;;;;;;15.60;70.55;96917.81;5326874;55;20122;-78
2021/06/13 05:08:20;;;;;;;5.40;4.10;;;;;;;15.73;70.56;96921.09;5319363;55;20662;-78
2021/06/13 05:13:22;;;;;;;4.72;3.85;;;;;;;15.81;69.24;96924.22;5328769;55;20126;-78
2021/06/13 05:18:24;;;;;;;3.60;3.30;;;;;;;15.88;68.54;96937.78;5329081;55;20109;-77
2021/06/13 05:23:27;;;;;;;5.57;3.33;;;;;;;15.87;67.83;96941.06;5328801;55;20118;-77
2021/06/13 05:28:30;;;;;;;4.60;3.53;;;;;;;15.81;68.14;96952.09;5328728;55;20661;-77
2021/06/13 05:33:32;;;;;;;5.05;3.28;;;;;;;16.00;67.06;96944.31;5328512;55;20135;-78
2021/06/13 05:38:35;;;;;;;3.83;3.47;;;;;;;16.05;66.45;96943.63;5329106;55;20118;-79
2021/06/13 05:43:39;;;;;;;4.47;3.42;;;;;;;16.14;65.51;96960.25;5328439;55;20127;-79
2021/06/13 05:48:41;;;;;;;8.25;3.63;;;;;;;16.38;64.27;96969.22;5328613;55;20114;-79
2021/06/13 05:53:43;;;;;;;3.65;2.63;;;;;;;16.49;63.69;96969.38;5332503;55;20140;-79
2021/06/13 05:58:46;;;;;;;2.78;2.50;;;;;;;16.71;62.48;96977.34;5333107;55;20118;-79
2021/06/13 06:03:48;;;;;;;2.60;2.40;;;;;;;16.88;62.41;96961.56;5333496;55;20122;-79
2021/06/13 06:08:50;;;;;;;4.20;2.50;;;;;;;17.00;61.12;96974.41;5331705;55;20117;-78
2021/06/13 06:13:53;;;;;;;4.72;3.60;;;;;;;16.91;60.69;96986.50;5331212;55;20131;-78
2021/06/13 06:18:56;;;;;;;4.45;3.10;;;;;;;17.05;61.39;96985.63;5331970;55;20131;-78
2021/06/13 06:23:58;;;;;;;3.30;2.53;;;;;;;17.27;59.62;96987.94;5332138;55;20167;-79
2021/06/13 06:29:00;;;;;;;4.30;2.70;;;;;;;17.07;59.08;96988.69;5335063;55;20127;-78
2021/06/13 06:34:03;;;;;;;4.45;2.90;;;;;;;16.88;60.31;96995.84;5345146;55;20126;-79
2021/06/13 06:39:05;;;;;;;3.33;2.95;;;;;;;17.13;58.97;97002.75;5330986;55;20122;-78
2021/06/13 06:44:08;;;;;;;2.95;2.40;;;;;;;17.35;59.81;97002.22;5313711;55;20130;-78
2021/06/13 06:49:11;;;;;;;3.65;2.28;;;;;;;17.52;58.86;97004.00;5309397;55;20106;-77
2021/06/13 06:54:14;;;;;;;3.10;2.78;;;;;;;17.57;57.66;97002.53;5315544;55;20122;-78
2021/06/13 06:59:16;;;;;;;3.70;2.70;;;;;;;17.55;57.23;97005.06;5318881;55;20127;-79
2021/06/13 07:04:18;;;;;;;2.95;2.55;;;;;;;17.83;58.64;97008.88;5322364;55;20132;-77
2021/06/13 07:09:21;;;;;;;2.88;2.60;;;;;;;18.13;56.84;97023.41;5323898;55;20131;-79
2021/06/13 07:14:24;;;;;;;4.65;2.40;;;;;;;18.16;56.15;97009.16;5325136;55;20202;-78
2021/06/13 07:19:26;;;;;;;5.03;2.38;;;;;;;18.33;55.81;97010.09;5326864;55;20188;-77
2021/06/13 07:24:28;;;;;;;4.63;2.80;;;;;;;18.13;57.81;97018.56;5320116;55;20122;-77
2021/06/13 07:29:31;;;;;;;3.65;2.55;;;;;;;18.32;56.88;97024.56;5321857;55;20123;-78
2021/06/13 07:34:33;;;;;;;4.40;2.90;;;;;;;18.44;55.85;97020.59;5324346;55;20655;-78
2021/06/13 07:39:35;;;;;;;5.65;3.25;;;;;;;18.33;56.67;97021.28;5306342;55;20132;-77
2021/06/13 07:44:38;;;;;;;4.57;2.90;;;;;;;18.96;54.77;97032.41;5308618;55;20206;-78
2021/06/13 07:49:41;;;;;;;4.65;2.50;;;;;;;19.43;53.80;97033.66;5326953;55;20126;-76
2021/06/13 07:54:43;;;;;;;7.38;2.95;;;;;;;20.02;52.73;97040.72;5329655;55;20118;-79
2021/06/13 07:59:46;;;;;;;3.45;2.67;;;;;;;20.70;49.35;97037.44;5346398;55;20144;-80
2021/06/13 08:04:59;;;;;;;7.03;3.28;;;;;;;20.38;49.65;97021.38;5344159;55;20632;-78
2021/06/13 08:10:03;;;;;;;3.85;2.47;;;;;;;21.84;47.82;97024.06;5311080;55;20104;-84
2021/06/13 08:15:07;;;;;;;3.85;2.97;;;;;;;21.55;47.67;97028.28;5321730;55;20117;-81
2021/06/13 08:20:10;;;;;;;5.68;2.90;;;;;;;21.28;49.09;97015.84;5322106;55;20117;-82
2021/06/13 08:25:13;;;;;;;3.50;2.22;;;;;;;21.56;45.79;97029.03;5332396;55;20109;-82
2021/06/13 08:30:18;;;;;;;2.70;2.50;;;;;;;22.16;44.18;97015.91;5323415;55;20132;-77
2021/06/13 08:35:20;;;;;;;4.40;2.92;;;;;;;21.10;46.97;97027.66;5322834;55;20643;-79
2021/06/13 08:40:24;;;;;;;4.72;2.50;;;;;;;22.28;43.87;97023.75;5330926;55;20122;-81
2021/06/13 08:45:29;;;;;;;4.45;2.58;;;;;;;21.88;45.28;97010.47;5330705;55;20136;-80
2021/06/13 08:50:33;;;;;;;2.75;2.55;;;;;;;22.11;44.28;97023.88;5334888;55;20113;-79
2021/06/13 08:55:36;;;;;;;2.50;2.30;;;;;;;21.29;46.48;97022.25;5338514;55;20139;-79
2021/06/13 09:00:39;;;;;;;5.15;2.58;;;;;;;22.35;44.02;97028.81;5331234;55;20305;-78
2021/06/13 09:05:42;;;;;;;4.70;2.35;;;;;;;21.25;45.14;97045.03;5327805;55;20118;-79
2021/06/13 09:10:46;;;;;;;3.22;2.20;;;;;;;22.58;42.79;97035.78;5331348;55;20578;-78
2021/06/13 09:15:53;;;;;;;4.32;2.35;;;;;;;22.73;42.12;97046.69;5331351;55;20113;-79
2021/06/13 09:20:56;;;;;;;2.92;2.72;;;;;;;22.74;42.72;97054.66;5328761;55;20105;-78
2021/06/13 09:26:05;;;;;;;3.90;2.05;;;;;;;23.55;39.46;97044.31;5326904;55;20644;-78
2021/06/13 09:31:19;;;;;;;;;;;;;;;23.76;39.24;97047.38;5324975;55;20260;-77
2021/06/13 09:36:28;;;;;;;3.20;2.20;;;;;;;23.65;40.42;97037.00;5323306;55;19972;-77
2021/06/13 09:41:35;;;;;;;2.67;2.45;;;;;;;21.05;46.94;97048.16;5332118;55;20122;-79
2021/06/13 09:46:40;;;;;;;3.60;1.80;;;;;;;22.32;40.44;97046.00;5335322;55;20127;-82
2021/06/13 09:51:54;;;;;;;3.15;2.00;;;;;;;23.46;41.85;97053.91;5334118;55;20113;-78
2021/06/13 09:57:02;;;;;;;3.78;1.90;;;;;;;23.03;41.79;97049.47;5326411;55;20698;-80
2021/06/13 10:02:08;;;;;;;4.57;2.45;;;;;;;22.95;38.97;97040.09;5326171;55;20654;-77
2021/06/13 10:07:13;;;;;;;2.55;2.08;;;;;;;23.26;40.50;97048.72;5327014;55;20616;-77
2021/06/13 10:12:16;;;;;;;4.10;2.20;;;;;;;23.45;40.03;97045.97;5330669;55;20105;-80
2021/06/13 10:17:31;;;;;;;4.40;1.80;;;;;;;24.53;38.09;97051.91;5333439;55;20127;-79
2021/06/13 10:22:34;;;;;;;5.35;2.13;;;;;;;22.76;39.63;97040.00;5333105;55;20149;-79
2021/06/13 10:27:37;;;;;;;2.42;2.20;;;;;;;23.49;40.61;97047.22;5332655;55;20109;-80
2021/06/13 10:32:39;;;;;;;2.17;1.92;;;;;;;25.63;37.66;97037.06;5324987;55;20219;-79
2021/06/13 10:37:42;;;;;;;2.70;1.88;;;;;;;24.11;37.31;97038.69;5332217;55;20122;-79
2021/06/13 10:42:44;;;;;;;2.25;1.90;;;;;;;24.81;38.31;97026.78;5331515;55;20113;-79
2021/06/13 10:48:07;;;;;;;2.85;2.00;;;;;;;23.47;37.61;97041.31;5330091;55;20122;-79
2021/06/13 10:53:11;;;;;;;2.53;2.17;;;;;;;23.81;39.13;97030.38;5326467;55;20104;-79
2021/06/13 10:58:49;;;;;;;2.83;2.08;;;;;;;23.69;38.60;97031.81;5317777;55;20578;-80
2021/06/13 11:04:04;;;;;;;3.45;1.63;;;;;;;26.43;33.64;97025.00;5328924;55;20172;-79
2021/06/13 11:09:14;;;;;;;1.73;1.60;;;;;;;23.20;37.61;97030.34;5327054;55;20729;-79
2021/06/13 11:14:30;;;;;;;2.90;1.92;;;;;;;25.09;36.68;97034.00;5332463;55;20704;-81
2021/06/13 11:19:34;;;;;;;4.65;1.73;;;;;;;25.31;37.10;97039.22;5324901;55;20136;-81
2021/06/13 11:24:52;;;;;;;3.25;1.75;;;;;;;23.20;38.50;97031.13;5331497;55;20122;-79
2021/06/13 11:29:58;;;;;;;2.05;1.63;;;;;;;23.99;35.10;97038.09;5322647;55;20122;-78
2021/06/13 11:35:00;;;;;;;3.08;1.58;;;;;;;23.52;35.03;97029.19;5331880;55;20341;-78
2021/06/13 11:40:03;;;;;;;4.72;1.92;;;;;;;23.10;36.69;97037.63;5329658;55;20596;-78
2021/06/13 11:45:28;;;;;;;1.50;1.40;;;;;;;24.32;35.15;97036.06;5329889;55;20109;-79
2021/06/13 11:50:34;;;;;;;1.63;1.42;;;;;;;24.43;39.88;97028.19;5334471;55;20109;-78
2021/06/13 11:55:52;;;;;;;2.25;1.73;;;;;;;24.62;36.21;97028.91;5338987;55;20131;-77
2021/06/13 12:00:55;;;;;;;1.35;1.23;;;;;;;24.13;32.56;97022.75;5330164;55;20123;-77
2021/06/13 12:06:02;;;;;;;1.35;1.20;;;;;;;25.11;33.49;97015.19;5333081;55;20132;-82
2021/06/13 12:11:05;;;;;;;1.73;1.40;;;;;;;24.97;32.95;97021.38;5332951;55;20117;-80
2021/06/13 12:16:15;;;;;;;3.17;1.50;;;;;;;24.93;33.53;97030.94;5350866;55;20126;-79
2021/06/13 12:21:26;;;;;;;5.03;1.55;;;;;;;24.02;37.56;97011.59;5334757;55;20113;-79
2021/06/13 12:31:52;;;;;;;1.98;1.30;;;;;;;23.31;34.62;96999.97;5326121;55;20100;-78
2021/06/13 12:36:55;;;;;;;3.45;1.65;;;;;;;23.57;35.33;97010.69;5332946;55;20139;-80
2021/06/13 12:42:11;;;;;;;3.13;1.45;;;;;;;25.24;31.04;97001.03;5333096;55;20127;-79
2021/06/13 12:47:17;;;;;;;2.67;1.42;;;;;;;23.59;32.93;96998.88;5330591;55;20131;-80
2021/06/13 12:52:19;;;;;;;1.30;1.20;;;;;;;25.11;32.38;97000.28;5332318;55;20087;-81
2021/06/13 12:57:22;;;;;;;3.53;1.40;;;;;;;24.22;33.18;96999.75;5331327;55;20122;-80
2021/06/13 13:02:25;;;;;;;1.00;1.00;;;;;;;24.97;31.40;96999.50;5340552;55;20263;-79
2021/06/13 13:07:32;;;;;;;3.72;1.27;;;;;;;24.46;30.82;96992.44;5352863;55;20206;-79
2021/06/13 13:12:37;;;;;;;1.20;1.10;;;;;;;25.46;31.85;97000.63;5336725;55;20095;-79
2021/06/13 13:17:40;;;;;;;1.60;1.30;;;;;;;25.03;31.04;96990.94;5332736;55;20127;-82
2021/06/13 13:22:44;;;;;;;1.85;1.13;;;;;;;25.10;32.05;96988.22;5329168;55;20105;-79
2021/06/13 13:27:48;;;;;;;3.03;1.20;;;;;;;24.59;35.11;97007.34;5317139;55;20150;-81
2021/06/13 13:32:52;;;;;;;1.00;1.00;;;;;;;24.68;29.68;97006.19;5338961;55;20109;-77
2021/06/13 13:37:55;;;;;;;1.45;1.33;;;;;;;24.49;32.99;97000.63;5326377;55;20123;-77
2021/06/13 13:43:15;;;;;;;3.92;1.30;;;;;;;23.85;31.95;96994.13;5326102;55;20105;-76
2021/06/13 13:48:19;;;;;;;1.40;1.23;;;;;;;24.70;30.32;96992.25;5326743;55;20108;-77
2021/06/13 13:53:26;;;;;;;1.20;1.10;;;;;;;25.74;30.93;96974.53;5324904;55;20727;-76
2021/06/13 13:58:29;;;;;;;1.55;1.30;;;;;;;26.05;32.62;96975.66;5313304;55;20140;-77
2021/06/13 14:03:34;;;;;;;1.70;1.60;;;;;;;26.53;28.56;96985.59;5326780;55;20132;-77
2021/06/13 14:08:42;;;;;;;1.42;1.10;;;;;;;25.05;31.23;96989.09;5327841;55;20758;-76
2021/06/13 14:13:45;;;;;;;1.42;1.25;;;;;;;25.74;30.22;96963.22;5327096;55;20122;-77
2021/06/13 14:18:48;;;;;;;1.75;1.10;;;;;;;25.08;31.51;96979.50;5332823;55;20093;-78
2021/06/13 14:23:50;;;;;;;1.10;1.10;;;;;;;24.90;30.80;96969.81;5331997;55;20119;-76
2021/06/13 14:28:52;;;;;;;1.23;1.23;;;;;;;25.78;29.96;96972.16;5320280;55;20122;-76
2021/06/13 14:33:56;;;;;;;3.85;1.25;;;;;;;26.07;27.38;96973.03;5320354;55;20104;-78
2021/06/13 14:38:58;;;;;;;1.35;0.90;;;;;;;25.73;28.92;96963.78;5324336;55;20122;-76
2021/06/13 14:44:01;;;;;;;1.67;0.90;;;;;;;25.55;30.35;96986.03;5322180;55;20291;-74
2021/06/13 14:49:03;;;;;;;1.73;1.20;;;;;;;25.24;29.43;96967.09;5316435;55;20231;-76
2021/06/13 14:54:06;;;;;;;1.88;1.13;;;;;;;25.42;34.67;96966.19;5321084;55;20608;-78
2021/06/13 14:59:09;;;;;;;1.70;1.13;;;;;;;25.47;30.09;96959.69;5327443;55;20118;-79
2021/06/13 15:04:11;;;;;;;1.10;1.00;;;;;;;25.32;29.08;96964.38;5327103;55;20132;-78
2021/06/13 15:09:14;;;;;;;1.98;1.00;;;;;;;25.54;30.99;96961.09;5323790;55;20135;-79
2021/06/13 15:14:16;;;;;;;1.30;1.20;;;;;;;24.20;29.92;96957.16;5328483;55;20118;-79
2021/06/13 15:19:18;;;;;;;1.10;1.00;;;;;;;24.15;29.99;96962.91;5329166;55;20122;-76
2021/06/13 15:24:21;;;;;;;0.80;0.80;;;;;;;25.09;28.71;96940.66;5325045;55;20118;-78
2021/06/13 15:29:23;;;;;;;1.48;1.00;;;;;;;24.83;28.92;96950.66;5319409;55;20114;-78
2021/06/13 15:34:30;;;;;;;3.58;1.02;;;;;;;24.47;28.64;96949.50;5327095;55;20118;-76
2021/06/13 15:39:33;;;;;;;1.10;1.10;;;;;;;24.06;30.52;96943.53;5318580;55;20113;-78
2021/06/13 15:44:35;;;;;;;1.00;0.85;;;;;;;23.38;29.77;96947.84;5322679;55;20695;-77
2021/06/13 15:49:38;;;;;;;1.33;1.00;;;;;;;23.53;30.04;96932.00;5327550;55;20123;-78
2021/06/13 15:54:44;;;;;;;2.20;1.30;;;;;;;23.36;32.02;96937.09;5324010;55;20109;-76
2021/06/13 15:59:48;;;;;;;1.55;1.17;;;;;;;23.14;32.46;96933.75;5326447;55;20107;-79
2021/06/13 16:04:51;;;;;;;1.75;0.90;;;;;;;22.76;28.97;96935.75;5327433;55;20172;-80
2021/06/13 16:09:56;;;;;;;1.33;0.80;;;;;;;23.08;30.37;96930.25;5316057;55;20135;-80
2021/06/13 16:14:58;;;;;;;1.67;0.98;;;;;;;23.16;29.86;96928.38;5324423;55;20131;-78
2021/06/13 16:20:00;;;;;;;1.05;1.00;;;;;;;23.06;30.94;96921.56;5323149;55;20113;-80
2021/06/13 16:25:03;;;;;;;2.05;0.93;;;;;;;22.81;29.74;96924.44;5325843;55;20109;-80
2021/06/13 16:30:07;;;;;;;0.90;0.90;;;;;;;22.81;29.10;96929.28;5328764;55;20127;-78
2021/06/13 16:35:10;;;;;;;1.65;0.80;;;;;;;22.42;30.49;96929.66;5315099;55;20140;-78
2021/06/13 16:40:12;;;;;;;1.00;1.00;;;;;;;22.41;30.75;96916.88;5319303;55;20117;-79
2021/06/13 16:45:15;;;;;;;0.80;0.80;;;;;;;22.59;32.79;96921.06;5323046;55;20680;-78
2021/06/13 16:50:17;;;;;;;2.65;0.80;;;;;;;22.50;31.67;96924.22;5320265;55;20125;-76
2021/06/13 16:55:23;;;;;;;1.23;1.00;;;;;;;22.47;30.46;96923.22;5319949;55;20163;-78
2021/06/13 17:00:27;;;;;;;1.42;1.02;;;;;;;22.33;30.98;96920.78;5318862;55;20117;-77
2021/06/13 17:05:31;;;;;;;1.17;0.93;;;;;;;22.38;31.76;96934.84;5316075;55;20117;-77
2021/06/13 17:10:33;;;;;;;1.10;1.02;;;;;;;22.53;31.14;96932.38;5319980;55;20569;-76
2021/06/13 17:15:36;;;;;;;1.48;0.93;;;;;;;22.40;32.75;96931.50;5322021;55;20572;-76
2021/06/13 17:20:39;;;;;;;1.73;1.20;;;;;;;22.33;33.83;96924.38;5319833;55;20122;-77
2021/06/13 17:25:44;;;;;;;2.60;1.17;;;;;;;22.11;34.17;96935.84;5319081;55;20116;-78
2021/06/13 17:30:47;;;;;;;1.40;1.30;;;;;;;21.88;34.71;96931.69;5317598;55;20122;-78
2021/06/13 17:36:17;;;;;;;2.05;1.10;;;;;;;22.04;34.31;96927.97;5309079;55;20127;-77
2021/06/13 17:41:42;;;;;;;1.33;1.10;;;;;;;22.72;34.20;96930.41;5322802;55;20105;-77
2021/06/13 17:46:46;;;;;;;1.42;1.00;;;;;;;22.10;34.04;96928.69;5325892;55;20135;-77
2021/06/13 17:51:50;;;;;;;1.50;1.20;;;;;;;21.61;34.81;96929.78;5322248;55;20127;-77
2021/06/13 17:56:53;;;;;;;3.88;1.20;;;;;;;21.78;35.03;96927.66;5327739;55;20581;-78
2021/06/13 18:01:55;;;;;;;1.40;1.30;;;;;;;21.82;35.16;96928.13;5326196;55;20100;-77
2021/06/13 18:06:58;;;;;;;1.23;1.10;;;;;;;21.48;36.39;96924.00;5325925;55;20118;-77
2021/06/13 18:12:01;;;;;;;2.05;1.20;;;;;;;21.32;36.14;96926.41;5327747;55;20117;-77
2021/06/13 18:17:04;;;;;;;1.50;1.40;;;;;;;20.88;37.38;96923.75;5331743;55;20854;-78
2021/06/13 18:22:07;;;;;;;1.38;1.25;;;;;;;20.68;38.28;96924.06;5348811;55;20113;-79
2021/06/13 18:27:09;;;;;;;4.30;1.20;;;;;;;20.43;38.70;96908.31;5325866;55;20104;-77
2021/06/13 18:32:11;;;;;;;1.85;1.10;;;;;;;20.17;38.57;96919.81;5323066;55;20216;-77
2021/06/13 18:37:14;;;;;;;4.15;1.10;;;;;;;20.03;38.05;96924.41;5323608;55;20137;-78
2021/06/13 18:42:16;;;;;;;2.35;0.90;;;;;;;20.06;38.37;96924.66;5322622;55;20122;-78
2021/06/13 18:47:19;;;;;;;3.28;1.13;;;;;;;19.78;38.52;96933.06;5327239;55;20117;-79
2021/06/13 18:52:21;;;;;;;1.63;1.30;;;;;;;19.59;39.03;96938.41;5327696;55;20113;-77
2021/06/13 18:57:24;;;;;;;1.30;1.00;;;;;;;19.33;38.60;96927.38;5318797;55;20591;-78
2021/06/13 19:02:26;;;;;;;1.85;1.30;;;;;;;19.44;38.71;96943.47;5320244;55;20117;-76
2021/06/13 19:07:29;;;;;;;1.13;1.10;;;;;;;19.23;39.28;96940.09;5325904;55;20661;-78
2021/06/13 19:12:31;;;;;;;1.52;1.10;;;;;;;19.01;39.92;96939.22;5323915;55;20109;-78
2021/06/13 19:17:34;;;;;;;1.50;1.00;;;;;;;18.95;40.63;96942.00;5325213;55;20113;-77
2021/06/13 19:22:37;;;;;;;1.55;1.10;;;;;;;18.78;42.17;96946.78;5319371;55;20210;-76
2021/06/13 19:27:40;;;;;;;2.95;1.20;;;;;;;18.26;43.72;96954.56;5316380;55;20653;-76
2021/06/13 19:32:44;;;;;;;0.95;0.95;;;;;;;18.05;45.16;96952.41;5319519;55;20126;-76
2021/06/13 19:37:49;;;;;;;3.50;1.30;;;;;;;17.78;44.69;96948.09;5322703;55;20216;-77
2021/06/13 19:42:52;;;;;;;1.10;1.10;;;;;;;17.67;48.36;96956.38;5325100;55;20109;-79
2021/06/13 19:47:54;;;;;;;0.90;0.90;;;;;;;17.26;53.21;96963.28;5327793;55;20123;-78
2021/06/13 19:52:58;;;;;;;1.40;1.17;;;;;;;16.93;56.58;96966.44;5322136;55;20118;-77
2021/06/13 19:58:00;;;;;;;0.85;0.85;;;;;;;17.01;54.18;96961.97;5324364;55;20130;-77
2021/06/13 20:03:03;;;;;;;2.63;1.27;;;;;;;16.60;55.76;96972.34;5322252;55;20923;-77
2021/06/13 20:08:06;;;;;;;3.03;1.20;;;;;;;16.32;60.36;96983.09;5324803;55;20149;-77
2021/06/13 20:13:08;;;;;;;1.75;0.95;;;;;;;15.97;58.80;96978.72;5327141;55;20118;-78
2021/06/13 20:18:10;;;;;;;2.15;1.33;;;;;;;15.60;62.32;96976.31;5324894;55;20113;-78
2021/06/13 20:23:13;;;;;;;2.03;1.23;;;;;;;15.35;64.98;96976.09;5325713;55;20113;-78
2021/06/13 20:28:15;;;;;;;1.63;1.40;;;;;;;15.33;65.51;96981.38;5319574;55;20114;-78
2021/06/13 20:33:18;;;;;;;1.67;1.45;;;;;;;14.89;66.34;96984.03;5325297;55;20096;-78
2021/06/13 20:38:22;;;;;;;2.47;1.33;;;;;;;14.53;68.38;96975.91;5324931;55;20126;-77
2021/06/13 20:43:24;;;;;;;1.98;1.30;;;;;;;14.31;69.03;96981.75;5312891;55;20118;-77
2021/06/13 20:48:28;;;;;;;3.90;1.55;;;;;;;14.21;69.61;96969.88;5316076;55;20117;-77
2021/06/13 20:53:33;;;;;;;3.17;1.50;;;;;;;14.29;68.93;96968.31;5308224;55;20114;-77
2021/06/13 20:58:35;;;;;;;1.13;1.13;;;;;;;14.25;70.08;96972.47;5319886;55;20646;-77
2021/06/13 21:03:40;;;;;;;1.23;1.20;;;;;;;14.12;69.36;96969.91;5320140;55;20122;-77
2021/06/13 21:08:44;;;;;;;3.35;1.63;;;;;;;13.99;69.99;96969.34;5324508;55;20113;-79
2021/06/13 21:13:46;;;;;;;1.58;1.48;;;;;;;14.18;67.43;96967.28;5321352;55;20140;-78
2021/06/13 21:18:48;;;;;;;1.60;1.50;;;;;;;13.82;69.05;96967.44;5323419;55;20122;-77
2021/06/13 21:23:51;;;;;;;1.90;1.60;;;;;;;13.52;70.73;96977.53;5325269;55;20109;-77
2021/06/13 21:28:53;;;;;;;2.55;1.30;;;;;;;13.41;71.51;96977.25;5324817;55;20152;-75
2021/06/13 21:33:55;;;;;;;1.20;1.20;;;;;;;13.49;71.67;96981.22;5306066;55;20105;-75
2021/06/13 21:38:58;;;;;;;1.88;1.75;;;;;;;13.36;72.87;96991.72;5317387;55;20215;-77
2021/06/13 21:44:00;;;;;;;1.20;1.05;;;;;;;13.10;72.33;96984.94;5325879;55;20117;-76
2021/06/13 21:49:03;;;;;;;1.08;1.05;;;;;;;13.03;72.79;96979.66;5325716;55;20105;-76
2021/06/13 21:54:05;;;;;;;1.25;1.13;;;;;;;13.10;72.22;96991.28;5325625;55;20109;-77
2021/06/13 21:59:08;;;;;;;1.50;1.40;;;;;;;13.16;70.71;96988.66;5326034;55;20118;-77
2021/06/13 22:04:12;;;;;;;1.08;1.08;;;;;;;12.66;72.72;96979.66;5325592;55;20104;-77
2021/06/13 22:09:15;;;;;;;2.88;1.60;;;;;;;12.65;73.24;96999.53;5325440;55;20617;-76
2021/06/13 22:14:17;;;;;;;2.13;1.52;;;;;;;12.47;73.95;96996.72;5325060;55;20640;-77
2021/06/13 22:19:19;;;;;;;1.60;1.50;;;;;;;12.41;74.46;96988.25;5325621;55;20117;-77
2021/06/13 22:24:38;;;;;;;1.77;1.67;;;;;;;12.59;73.30;96988.28;5328783;55;20644;-77
2021/06/13 22:29:40;;;;;;;2.95;1.58;;;;;;;12.79;72.73;96996.94;5325345;55;20113;-77
2021/06/13 22:34:43;;;;;;;3.42;1.50;;;;;;;12.81;72.92;96993.69;5327773;55;20122;-77
2021/06/13 22:39:45;;;;;;;1.58;1.42;;;;;;;12.46;73.01;96992.41;5328633;55;20757;-77
2021/06/13 22:44:48;;;;;;;2.08;1.40;;;;;;;12.19;74.32;96985.53;5328969;55;20108;-77
2021/06/13 22:49:50;;;;;;;1.50;1.38;;;;;;;11.98;75.31;96978.09;5328594;55;20148;-77
2021/06/13 22:54:52;;;;;;;2.22;1.90;;;;;;;12.04;74.66;96976.25;5328120;55;20560;-76
2021/06/13 22:59:56;;;;;;;1.20;1.20;;;;;;;12.02;74.28;96983.47;5328154;55;20113;-77
2021/06/13 23:04:58;;;;;;;1.38;1.27;;;;;;;11.94;75.29;96985.75;5326819;55;20118;-77
2021/06/13 23:10:01;;;;;;;1.42;1.30;;;;;;;11.67;75.85;96982.84;5327925;55;20594;-77
2021/06/13 23:15:05;;;;;;;1.67;1.58;;;;;;;11.53;76.65;96986.88;5327891;55;20114;-77
2021/06/13 23:20:08;;;;;;;1.70;1.60;;;;;;;11.48;76.79;96976.41;5328382;55;20117;-76
2021/06/13 23:25:11;;;;;;;2.70;1.50;;;;;;;11.62;76.65;96979.88;5341193;55;20118;-76
2021/06/13 23:30:15;;;;;;;1.88;1.67;;;;;;;11.46;76.22;96972.56;5343971;55;20118;-77
2021/06/13 23:35:18;;;;;;;3.50;1.70;;;;;;;11.50;76.32;96978.72;5328017;55;20131;-77
2021/06/13 23:40:22;;;;;;;1.65;1.55;;;;;;;11.38;76.99;96972.03;5327957;55;20657;-77
2021/06/13 23:45:24;;;;;;;4.78;1.60;;;;;;;11.43;77.02;96963.16;5327494;55;20113;-76
2021/06/13 23:50:27;;;;;;;3.30;1.80;;;;;;;11.42;76.50;96972.66;5328292;55;20113;-76
2021/06/13 23:55:29;;;;;;;4.90;1.70;;;;;;;11.61;76.13;96979.09;5327395;55;20114;-76
